sensor_id;sensor_type;location;lat;lon;timestamp;temperature;humidity
11617;DHT22;5864;52.998;9.068;2023-09-19T00:00:00;16.70;99.90
11617;DHT22;5864;52.998;9.068;2023-09-19T00:02:52;16.80;99.90
11617;DHT22;5864;52.998;9.068;2023-09-19T00:05:38;16.80;99.90
11617;DHT22;5864;52.998;9.068;2023-09-19T00:08:27;16.70;99.90
11617;DHT22;5864;52.998;9.068;2023-09-19T00:11:12;16.70;99.90
11617;DHT22;5864;52.998;9.068;2023-09-19T00:13:59;16.70;99.90
11617;DHT22;5864;52.998;9.068;2023-09-19T00:16:44;16.70;99.90
11617;DHT22;5864;52.998;9.068;2023-09-19T00:19:32;16.60;99.90
11617;DHT22;5864;52.998;9.068;2023-09-19T00:22:18;16.70;99.90
11617;DHT22;5864;52.998;9.068;2023-09-19T00:25:04;16.60;99.90
11617;DHT22;5864;52.998;9.068;2023-09-19T00:27:50;16.60;99.90
11617;DHT22;5864;52.998;9.068;2023-09-19T00:30:37;16.70;99.90
11617;DHT22;5864;52.998;9.068;2023-09-19T00:33:22;16.70;99.90
11617;DHT22;5864;52.998;9.068;2023-09-19T00:36:10;16.70;99.90
11617;DHT22;5864;52.998;9.068;2023-09-19T00:38:55;16.70;99.90
11617;DHT22;5864;52.998;9.068;2023-09-19T00:41:42;16.70;99.90
11617;DHT22;5864;52.998;9.068;2023-09-19T00:44:29;16.80;99.90
11617;DHT22;5864;52.998;9.068;2023-09-19T00:47:15;16.70;99.90
11617;DHT22;5864;52.998;9.068;2023-09-19T00:50:03;16.70;99.90
11617;DHT22;5864;52.998;9.068;2023-09-19T00:52:54;16.70;99.90
11617;DHT22;5864;52.998;9.068;2023-09-19T00:55:42;16.70;99.90
11617;DHT22;5864;52.998;9.068;2023-09-19T00:58:28;16.70;99.90
11617;DHT22;5864;52.998;9.068;2023-09-19T01:01:18;16.60;99.90
11617;DHT22;5864;52.998;9.068;2023-09-19T01:04:05;16.70;99.90
11617;DHT22;5864;52.998;9.068;2023-09-19T01:06:50;16.70;99.90
11617;DHT22;5864;52.998;9.068;2023-09-19T01:09:39;16.70;99.90
11617;DHT22;5864;52.998;9.068;2023-09-19T01:12:30;16.70;99.90
11617;DHT22;5864;52.998;9.068;2023-09-19T01:15:25;16.60;99.90
11617;DHT22;5864;52.998;9.068;2023-09-19T01:18:21;16.60;99.90
11617;DHT22;5864;52.998;9.068;2023-09-19T01:21:17;16.70;99.90
11617;DHT22;5864;52.998;9.068;2023-09-19T01:24:33;16.70;99.90
11617;DHT22;5864;52.998;9.068;2023-09-19T01:27:43;16.70;99.90
11617;DHT22;5864;52.998;9.068;2023-09-19T01:30:42;16.70;99.90
11617;DHT22;5864;52.998;9.068;2023-09-19T01:33:30;16.70;99.90
11617;DHT22;5864;52.998;9.068;2023-09-19T01:36:37;16.70;99.90
11617;DHT22;5864;52.998;9.068;2023-09-19T01:39:22;16.70;99.90
11617;DHT22;5864;52.998;9.068;2023-09-19T01:42:13;16.80;99.90
11617;DHT22;5864;52.998;9.068;2023-09-19T01:45:09;16.80;99.90
11617;DHT22;5864;52.998;9.068;2023-09-19T01:48:14;16.60;99.90
11617;DHT22;5864;52.998;9.068;2023-09-19T01:51:06;16.30;49.40
11617;DHT22;5864;52.998;9.068;2023-09-19T01:53:55;16.20;69.40
11617;DHT22;5864;52.998;9.068;2023-09-19T01:56:48;16.10;55.30
11617;DHT22;5864;52.998;9.068;2023-09-19T01:59:45;16.10;48.70
11617;DHT22;5864;52.998;9.068;2023-09-19T02:02:35;16.00;59.50
11617;DHT22;5864;52.998;9.068;2023-09-19T02:05:26;15.90;66.10
11617;DHT22;5864;52.998;9.068;2023-09-19T02:08:16;15.80;95.20
11617;DHT22;5864;52.998;9.068;2023-09-19T02:11:02;15.70;68.30
11617;DHT22;5864;52.998;9.068;2023-09-19T02:13:47;15.80;47.30
11617;DHT22;5864;52.998;9.068;2023-09-19T02:16:34;15.80;43.60
11617;DHT22;5864;52.998;9.068;2023-09-19T02:19:19;15.70;42.20
11617;DHT22;5864;52.998;9.068;2023-09-19T02:22:07;15.70;14.70
11617;DHT22;5864;52.998;9.068;2023-09-19T02:24:54;15.70;22.00
11617;DHT22;5864;52.998;9.068;2023-09-19T02:27:42;15.60;19.10
11617;DHT22;5864;52.998;9.068;2023-09-19T02:30:28;15.60;1.00
11617;DHT22;5864;52.998;9.068;2023-09-19T02:33:14;15.60;1.00
11617;DHT22;5864;52.998;9.068;2023-09-19T02:36:00;15.60;1.00
11617;DHT22;5864;52.998;9.068;2023-09-19T02:38:49;15.50;10.10
11617;DHT22;5864;52.998;9.068;2023-09-19T02:41:36;15.50;1.00
11617;DHT22;5864;52.998;9.068;2023-09-19T02:44:21;15.50;1.00
11617;DHT22;5864;52.998;9.068;2023-09-19T02:47:07;15.40;23.50
11617;DHT22;5864;52.998;9.068;2023-09-19T02:49:54;15.40;36.30
11617;DHT22;5864;52.998;9.068;2023-09-19T02:52:41;15.40;6.80
11617;DHT22;5864;52.998;9.068;2023-09-19T02:55:29;15.40;1.00
11617;DHT22;5864;52.998;9.068;2023-09-19T02:58:16;15.40;1.00
11617;DHT22;5864;52.998;9.068;2023-09-19T03:01:08;15.50;1.00
11617;DHT22;5864;52.998;9.068;2023-09-19T03:03:56;15.50;1.00
11617;DHT22;5864;52.998;9.068;2023-09-19T03:06:41;15.50;1.00
11617;DHT22;5864;52.998;9.068;2023-09-19T03:09:29;15.50;1.00
11617;DHT22;5864;52.998;9.068;2023-09-19T03:12:16;15.50;1.00
11617;DHT22;5864;52.998;9.068;2023-09-19T03:15:03;15.50;1.00
11617;DHT22;5864;52.998;9.068;2023-09-19T03:17:49;15.50;1.00
11617;DHT22;5864;52.998;9.068;2023-09-19T03:20:37;15.40;1.00
11617;DHT22;5864;52.998;9.068;2023-09-19T03:23:23;15.50;1.00
11617;DHT22;5864;52.998;9.068;2023-09-19T03:26:10;15.30;1.00
11617;DHT22;5864;52.998;9.068;2023-09-19T03:28:57;15.30;1.00
11617;DHT22;5864;52.998;9.068;2023-09-19T03:31:44;15.20;11.70
11617;DHT22;5864;52.998;9.068;2023-09-19T03:34:29;15.20;13.40
11617;DHT22;5864;52.998;9.068;2023-09-19T03:37:16;15.20;21.00
11617;DHT22;5864;52.998;9.068;2023-09-19T03:40:02;15.20;15.00
11617;DHT22;5864;52.998;9.068;2023-09-19T03:42:50;15.20;6.80
11617;DHT22;5864;52.998;9.068;2023-09-19T03:45:37;15.20;1.00
11617;DHT22;5864;52.998;9.068;2023-09-19T03:48:23;15.20;1.00
11617;DHT22;5864;52.998;9.068;2023-09-19T03:51:08;15.20;1.00
11617;DHT22;5864;52.998;9.068;2023-09-19T03:53:54;15.20;1.00
11617;DHT22;5864;52.998;9.068;2023-09-19T03:56:41;15.20;8.30
11617;DHT22;5864;52.998;9.068;2023-09-19T03:59:27;15.20;1.70
11617;DHT22;5864;52.998;9.068;2023-09-19T04:02:15;15.20;25.20
11617;DHT22;5864;52.998;9.068;2023-09-19T04:05:07;15.10;23.10
11617;DHT22;5864;52.998;9.068;2023-09-19T04:07:53;15.10;19.50
11617;DHT22;5864;52.998;9.068;2023-09-19T04:10:41;15.00;34.70
11617;DHT22;5864;52.998;9.068;2023-09-19T04:13:26;15.00;42.90
11617;DHT22;5864;52.998;9.068;2023-09-19T04:16:13;14.00;51.90
11617;DHT22;5864;52.998;9.068;2023-09-19T04:18:59;14.90;74.20
11617;DHT22;5864;52.998;9.068;2023-09-19T04:21:45;15.00;83.90
11617;DHT22;5864;52.998;9.068;2023-09-19T04:24:31;15.00;82.80
11617;DHT22;5864;52.998;9.068;2023-09-19T04:27:19;15.00;84.40
11617;DHT22;5864;52.998;9.068;2023-09-19T04:30:06;15.00;66.60
11617;DHT22;5864;52.998;9.068;2023-09-19T04:32:55;15.00;82.50
11617;DHT22;5864;52.998;9.068;2023-09-19T04:35:42;14.90;63.60
11617;DHT22;5864;52.998;9.068;2023-09-19T04:38:27;15.00;55.40
11617;DHT22;5864;52.998;9.068;2023-09-19T04:41:14;14.90;59.70
11617;DHT22;5864;52.998;9.068;2023-09-19T04:44:00;14.90;59.80
11617;DHT22;5864;52.998;9.068;2023-09-19T04:46:46;14.90;67.40
11617;DHT22;5864;52.998;9.068;2023-09-19T04:49:32;14.90;60.00
11617;DHT22;5864;52.998;9.068;2023-09-19T04:52:19;14.80;54.90
11617;DHT22;5864;52.998;9.068;2023-09-19T04:55:05;14.80;47.70
11617;DHT22;5864;52.998;9.068;2023-09-19T04:57:51;14.80;57.10
11617;DHT22;5864;52.998;9.068;2023-09-19T05:00:38;14.80;40.80
11617;DHT22;5864;52.998;9.068;2023-09-19T05:03:23;14.80;53.00
11617;DHT22;5864;52.998;9.068;2023-09-19T05:06:09;14.80;41.50
11617;DHT22;5864;52.998;9.068;2023-09-19T05:08:56;14.80;35.50
11617;DHT22;5864;52.998;9.068;2023-09-19T05:11:42;14.70;44.20
11617;DHT22;5864;52.998;9.068;2023-09-19T05:14:28;14.70;80.90
11617;DHT22;5864;52.998;9.068;2023-09-19T05:17:14;14.70;76.20
11617;DHT22;5864;52.998;9.068;2023-09-19T05:20:01;14.80;76.20
11617;DHT22;5864;52.998;9.068;2023-09-19T05:22:59;14.70;75.50
11617;DHT22;5864;52.998;9.068;2023-09-19T05:25:47;14.80;64.20
11617;DHT22;5864;52.998;9.068;2023-09-19T05:28:33;14.80;57.70
11617;DHT22;5864;52.998;9.068;2023-09-19T05:31:20;14.80;52.40
11617;DHT22;5864;52.998;9.068;2023-09-19T05:34:05;14.80;56.20
11617;DHT22;5864;52.998;9.068;2023-09-19T05:36:52;14.80;57.40
11617;DHT22;5864;52.998;9.068;2023-09-19T05:39:38;14.90;54.60
11617;DHT22;5864;52.998;9.068;2023-09-19T05:42:25;14.90;60.30
11617;DHT22;5864;52.998;9.068;2023-09-19T05:45:11;14.90;48.10
11617;DHT22;5864;52.998;9.068;2023-09-19T05:48:07;15.00;52.10
11617;DHT22;5864;52.998;9.068;2023-09-19T05:50:55;15.00;66.70
11617;DHT22;5864;52.998;9.068;2023-09-19T05:53:40;15.30;46.60
11617;DHT22;5864;52.998;9.068;2023-09-19T05:56:27;15.90;1.00
11617;DHT22;5864;52.998;9.068;2023-09-19T05:59:14;16.50;1.00
11617;DHT22;5864;52.998;9.068;2023-09-19T06:02:00;16.90;1.00
11617;DHT22;5864;52.998;9.068;2023-09-19T06:04:46;17.10;94.40
11617;DHT22;5864;52.998;9.068;2023-09-19T06:07:31;17.50;1.00
11617;DHT22;5864;52.998;9.068;2023-09-19T06:10:21;17.90;99.90
11617;DHT22;5864;52.998;9.068;2023-09-19T06:13:06;18.60;1.00
11617;DHT22;5864;52.998;9.068;2023-09-19T06:15:56;19.10;1.00
11617;DHT22;5864;52.998;9.068;2023-09-19T06:18:42;19.30;99.90
11617;DHT22;5864;52.998;9.068;2023-09-19T06:21:29;18.80;1.00
11617;DHT22;5864;52.998;9.068;2023-09-19T06:24:16;17.70;1.00
11617;DHT22;5864;52.998;9.068;2023-09-19T06:27:04;17.30;1.00
11617;DHT22;5864;52.998;9.068;2023-09-19T06:29:51;17.00;99.90
11617;DHT22;5864;52.998;9.068;2023-09-19T06:32:38;16.50;99.90
11617;DHT22;5864;52.998;9.068;2023-09-19T06:35:25;16.50;1.00
11617;DHT22;5864;52.998;9.068;2023-09-19T06:38:11;16.60;99.90
11617;DHT22;5864;52.998;9.068;2023-09-19T06:40:58;16.90;1.00
11617;DHT22;5864;52.998;9.068;2023-09-19T06:43:46;16.70;15.20
11617;DHT22;5864;52.998;9.068;2023-09-19T06:46:31;16.60;15.40
11617;DHT22;5864;52.998;9.068;2023-09-19T06:49:20;16.40;99.90
11617;DHT22;5864;52.998;9.068;2023-09-19T06:52:06;16.30;99.90
11617;DHT22;5864;52.998;9.068;2023-09-19T06:54:51;16.10;1.00
11617;DHT22;5864;52.998;9.068;2023-09-19T06:57:38;16.10;1.00
11617;DHT22;5864;52.998;9.068;2023-09-19T07:00:24;16.20;1.00
11617;DHT22;5864;52.998;9.068;2023-09-19T07:03:12;16.30;99.90
11617;DHT22;5864;52.998;9.068;2023-09-19T07:06:01;16.50;99.90
11617;DHT22;5864;52.998;9.068;2023-09-19T07:08:49;16.80;1.00
11617;DHT22;5864;52.998;9.068;2023-09-19T07:11:34;17.20;1.00
11617;DHT22;5864;52.998;9.068;2023-09-19T07:14:21;17.20;99.90
11617;DHT22;5864;52.998;9.068;2023-09-19T07:17:06;17.50;1.00
11617;DHT22;5864;52.998;9.068;2023-09-19T07:19:52;17.60;99.90
11617;DHT22;5864;52.998;9.068;2023-09-19T07:22:40;17.60;99.90
11617;DHT22;5864;52.998;9.068;2023-09-19T07:25:26;17.70;99.90
11617;DHT22;5864;52.998;9.068;2023-09-19T07:28:12;17.90;99.90
11617;DHT22;5864;52.998;9.068;2023-09-19T07:31:01;18.60;24.10
11617;DHT22;5864;52.998;9.068;2023-09-19T07:33:48;20.40;1.00
11617;DHT22;5864;52.998;9.068;2023-09-19T07:39:23;23.00;99.90
11617;DHT22;5864;52.998;9.068;2023-09-19T07:42:08;23.60;99.90
11617;DHT22;5864;52.998;9.068;2023-09-19T07:44:55;23.90;99.90
11617;DHT22;5864;52.998;9.068;2023-09-19T07:47:44;23.90;99.90
11617;DHT22;5864;52.998;9.068;2023-09-19T07:50:30;23.90;99.90
11617;DHT22;5864;52.998;9.068;2023-09-19T07:53:15;24.10;99.90
11617;DHT22;5864;52.998;9.068;2023-09-19T07:56:04;24.50;99.90
11617;DHT22;5864;52.998;9.068;2023-09-19T07:58:50;25.30;99.90
11617;DHT22;5864;52.998;9.068;2023-09-19T08:01:36;25.40;99.90
11617;DHT22;5864;52.998;9.068;2023-09-19T08:04:23;25.40;99.90
11617;DHT22;5864;52.998;9.068;2023-09-19T08:07:10;25.50;99.90
11617;DHT22;5864;52.998;9.068;2023-09-19T08:09:55;25.40;99.90
11617;DHT22;5864;52.998;9.068;2023-09-19T08:12:44;25.20;99.90
11617;DHT22;5864;52.998;9.068;2023-09-19T08:15:31;25.60;99.90
11617;DHT22;5864;52.998;9.068;2023-09-19T08:18:17;25.30;99.90
11617;DHT22;5864;52.998;9.068;2023-09-19T08:21:03;25.30;99.90
11617;DHT22;5864;52.998;9.068;2023-09-19T08:23:49;25.20;99.90
11617;DHT22;5864;52.998;9.068;2023-09-19T08:26:34;25.10;99.90
11617;DHT22;5864;52.998;9.068;2023-09-19T08:29:24;24.60;99.90
11617;DHT22;5864;52.998;9.068;2023-09-19T08:32:11;24.40;99.90
11617;DHT22;5864;52.998;9.068;2023-09-19T08:34:57;24.80;99.90
11617;DHT22;5864;52.998;9.068;2023-09-19T08:37:43;24.90;99.90
11617;DHT22;5864;52.998;9.068;2023-09-19T08:40:30;24.80;99.90
11617;DHT22;5864;52.998;9.068;2023-09-19T08:43:21;24.50;99.90
11617;DHT22;5864;52.998;9.068;2023-09-19T08:46:12;24.60;99.90
11617;DHT22;5864;52.998;9.068;2023-09-19T08:49:04;24.20;99.90
11617;DHT22;5864;52.998;9.068;2023-09-19T08:51:56;24.10;99.90
11617;DHT22;5864;52.998;9.068;2023-09-19T08:54:42;24.20;99.90
11617;DHT22;5864;52.998;9.068;2023-09-19T08:57:33;24.30;99.90
11617;DHT22;5864;52.998;9.068;2023-09-19T09:00:21;24.30;99.90
11617;DHT22;5864;52.998;9.068;2023-09-19T09:03:10;24.00;99.90
11617;DHT22;5864;52.998;9.068;2023-09-19T09:05:57;23.90;99.90
11617;DHT22;5864;52.998;9.068;2023-09-19T09:08:44;23.30;99.90
11617;DHT22;5864;52.998;9.068;2023-09-19T09:11:33;23.20;99.90
11617;DHT22;5864;52.998;9.068;2023-09-19T09:14:19;23.20;99.90
11617;DHT22;5864;52.998;9.068;2023-09-19T09:17:06;23.10;99.90
11617;DHT22;5864;52.998;9.068;2023-09-19T09:19:53;22.90;99.90
11617;DHT22;5864;52.998;9.068;2023-09-19T09:22:50;22.80;99.90
11617;DHT22;5864;52.998;9.068;2023-09-19T09:25:50;23.00;99.90
11617;DHT22;5864;52.998;9.068;2023-09-19T09:28:45;23.10;99.90
11617;DHT22;5864;52.998;9.068;2023-09-19T09:31:32;23.40;99.90
11617;DHT22;5864;52.998;9.068;2023-09-19T09:34:17;24.10;99.90
11617;DHT22;5864;52.998;9.068;2023-09-19T09:37:06;24.30;99.90
11617;DHT22;5864;52.998;9.068;2023-09-19T09:39:54;24.90;99.90
11617;DHT22;5864;52.998;9.068;2023-09-19T09:42:40;25.10;99.90
11617;DHT22;5864;52.998;9.068;2023-09-19T09:45:26;24.40;99.90
11617;DHT22;5864;52.998;9.068;2023-09-19T09:48:24;23.90;99.90
11617;DHT22;5864;52.998;9.068;2023-09-19T09:51:23;23.80;99.90
11617;DHT22;5864;52.998;9.068;2023-09-19T09:54:17;23.80;99.90
11617;DHT22;5864;52.998;9.068;2023-09-19T09:57:05;23.80;99.90
11617;DHT22;5864;52.998;9.068;2023-09-19T09:59:59;23.90;99.90
11617;DHT22;5864;52.998;9.068;2023-09-19T10:03:00;23.50;99.90
11617;DHT22;5864;52.998;9.068;2023-09-19T10:05:53;22.70;99.90
11617;DHT22;5864;52.998;9.068;2023-09-19T10:08:39;21.50;99.90
11617;DHT22;5864;52.998;9.068;2023-09-19T10:11:28;21.20;99.90
11617;DHT22;5864;52.998;9.068;2023-09-19T10:14:16;21.10;99.90
11617;DHT22;5864;52.998;9.068;2023-09-19T10:17:05;21.30;99.90
11617;DHT22;5864;52.998;9.068;2023-09-19T10:19:55;21.50;99.90
11617;DHT22;5864;52.998;9.068;2023-09-19T10:22:42;21.40;99.90
11617;DHT22;5864;52.998;9.068;2023-09-19T10:25:28;21.20;99.90
11617;DHT22;5864;52.998;9.068;2023-09-19T10:28:16;21.20;99.90
11617;DHT22;5864;52.998;9.068;2023-09-19T10:31:06;21.20;99.90
11617;DHT22;5864;52.998;9.068;2023-09-19T10:33:55;21.50;99.90
11617;DHT22;5864;52.998;9.068;2023-09-19T10:36:44;21.40;99.90
11617;DHT22;5864;52.998;9.068;2023-09-19T10:39:32;21.10;99.90
11617;DHT22;5864;52.998;9.068;2023-09-19T10:42:19;20.90;99.90
11617;DHT22;5864;52.998;9.068;2023-09-19T10:45:08;20.90;99.90
11617;DHT22;5864;52.998;9.068;2023-09-19T10:47:57;21.10;99.90
11617;DHT22;5864;52.998;9.068;2023-09-19T10:50:45;21.50;99.90
11617;DHT22;5864;52.998;9.068;2023-09-19T10:53:41;21.70;99.90
11617;DHT22;5864;52.998;9.068;2023-09-19T10:56:32;21.50;99.90
11617;DHT22;5864;52.998;9.068;2023-09-19T10:59:21;21.20;99.90
11617;DHT22;5864;52.998;9.068;2023-09-19T11:02:17;20.90;99.90
11617;DHT22;5864;52.998;9.068;2023-09-19T11:05:11;20.90;99.90
11617;DHT22;5864;52.998;9.068;2023-09-19T11:07:58;21.40;99.90
11617;DHT22;5864;52.998;9.068;2023-09-19T11:10:45;21.20;99.90
11617;DHT22;5864;52.998;9.068;2023-09-19T11:13:31;21.70;99.90
11617;DHT22;5864;52.998;9.068;2023-09-19T11:16:21;21.80;99.90
11617;DHT22;5864;52.998;9.068;2023-09-19T11:19:09;21.70;99.90
11617;DHT22;5864;52.998;9.068;2023-09-19T11:21:56;21.40;99.90
11617;DHT22;5864;52.998;9.068;2023-09-19T11:24:41;21.80;99.90
11617;DHT22;5864;52.998;9.068;2023-09-19T11:27:26;21.90;99.90
11617;DHT22;5864;52.998;9.068;2023-09-19T11:30:26;21.80;99.90
11617;DHT22;5864;52.998;9.068;2023-09-19T11:33:18;22.10;99.90
11617;DHT22;5864;52.998;9.068;2023-09-19T11:36:09;22.40;99.90
11617;DHT22;5864;52.998;9.068;2023-09-19T11:38:58;22.50;99.90
11617;DHT22;5864;52.998;9.068;2023-09-19T11:41:45;22.60;99.90
11617;DHT22;5864;52.998;9.068;2023-09-19T11:44:36;22.60;99.90
11617;DHT22;5864;52.998;9.068;2023-09-19T11:47:22;22.10;99.90
11617;DHT22;5864;52.998;9.068;2023-09-19T11:50:08;22.10;99.90
11617;DHT22;5864;52.998;9.068;2023-09-19T11:52:57;22.20;99.90
11617;DHT22;5864;52.998;9.068;2023-09-19T11:55:44;22.10;99.90
11617;DHT22;5864;52.998;9.068;2023-09-19T11:58:31;22.00;99.90
11617;DHT22;5864;52.998;9.068;2023-09-19T12:01:23;22.10;99.90
11617;DHT22;5864;52.998;9.068;2023-09-19T12:04:11;22.20;99.90
11617;DHT22;5864;52.998;9.068;2023-09-19T12:06:59;22.20;99.90
11617;DHT22;5864;52.998;9.068;2023-09-19T12:09:47;22.20;99.90
11617;DHT22;5864;52.998;9.068;2023-09-19T12:12:34;22.60;99.90
11617;DHT22;5864;52.998;9.068;2023-09-19T12:15:23;22.30;99.90
11617;DHT22;5864;52.998;9.068;2023-09-19T12:18:26;22.20;99.90
11617;DHT22;5864;52.998;9.068;2023-09-19T12:21:25;21.90;99.90
11617;DHT22;5864;52.998;9.068;2023-09-19T12:24:12;21.70;99.90
11617;DHT22;5864;52.998;9.068;2023-09-19T12:27:04;21.80;99.90
11617;DHT22;5864;52.998;9.068;2023-09-19T12:29:50;21.90;99.90
11617;DHT22;5864;52.998;9.068;2023-09-19T12:32:40;21.70;99.90
11617;DHT22;5864;52.998;9.068;2023-09-19T12:35:30;21.30;99.90
11617;DHT22;5864;52.998;9.068;2023-09-19T12:38:25;21.50;99.90
11617;DHT22;5864;52.998;9.068;2023-09-19T12:41:12;21.70;99.90
11617;DHT22;5864;52.998;9.068;2023-09-19T12:43:59;22.00;99.90
11617;DHT22;5864;52.998;9.068;2023-09-19T12:46:45;21.90;99.90
11617;DHT22;5864;52.998;9.068;2023-09-19T12:49:30;22.20;99.90
11617;DHT22;5864;52.998;9.068;2023-09-19T12:52:16;22.40;99.90
11617;DHT22;5864;52.998;9.068;2023-09-19T12:55:04;22.40;99.90
11617;DHT22;5864;52.998;9.068;2023-09-19T12:57:59;22.40;99.90
11617;DHT22;5864;52.998;9.068;2023-09-19T13:00:47;22.30;99.90
11617;DHT22;5864;52.998;9.068;2023-09-19T13:03:36;22.00;99.90
11617;DHT22;5864;52.998;9.068;2023-09-19T13:06:35;21.90;99.90
11617;DHT22;5864;52.998;9.068;2023-09-19T13:09:25;22.10;99.90
11617;DHT22;5864;52.998;9.068;2023-09-19T13:12:38;21.80;99.90
11617;DHT22;5864;52.998;9.068;2023-09-19T13:15:26;22.00;99.90
11617;DHT22;5864;52.998;9.068;2023-09-19T13:18:15;22.10;99.90
11617;DHT22;5864;52.998;9.068;2023-09-19T13:21:06;22.10;99.90
11617;DHT22;5864;52.998;9.068;2023-09-19T13:23:56;22.20;99.90
11617;DHT22;5864;52.998;9.068;2023-09-19T13:26:43;22.20;99.90
11617;DHT22;5864;52.998;9.068;2023-09-19T13:29:29;22.10;99.90
11617;DHT22;5864;52.998;9.068;2023-09-19T13:32:15;21.90;99.90
11617;DHT22;5864;52.998;9.068;2023-09-19T13:35:02;21.50;99.90
11617;DHT22;5864;52.998;9.068;2023-09-19T13:37:49;21.40;99.90
11617;DHT22;5864;52.998;9.068;2023-09-19T13:40:35;21.50;99.90
11617;DHT22;5864;52.998;9.068;2023-09-19T13:43:21;21.60;99.90
11617;DHT22;5864;52.998;9.068;2023-09-19T13:46:06;21.50;99.90
11617;DHT22;5864;52.998;9.068;2023-09-19T13:48:56;21.20;99.90
11617;DHT22;5864;52.998;9.068;2023-09-19T13:51:45;21.40;99.90
11617;DHT22;5864;52.998;9.068;2023-09-19T13:54:31;21.70;99.90
11617;DHT22;5864;52.998;9.068;2023-09-19T13:57:17;21.80;99.90
11617;DHT22;5864;52.998;9.068;2023-09-19T14:00:03;22.00;99.90
11617;DHT22;5864;52.998;9.068;2023-09-19T14:02:50;22.10;99.90
11617;DHT22;5864;52.998;9.068;2023-09-19T14:05:36;21.80;99.90
11617;DHT22;5864;52.998;9.068;2023-09-19T14:08:23;21.50;99.90
11617;DHT22;5864;52.998;9.068;2023-09-19T14:11:09;21.20;99.90
11617;DHT22;5864;52.998;9.068;2023-09-19T14:13:55;21.20;99.90
11617;DHT22;5864;52.998;9.068;2023-09-19T14:16:41;21.00;99.90
11617;DHT22;5864;52.998;9.068;2023-09-19T14:19:27;21.10;99.90
11617;DHT22;5864;52.998;9.068;2023-09-19T14:22:13;21.00;99.90
11617;DHT22;5864;52.998;9.068;2023-09-19T14:25:00;20.90;99.90
11617;DHT22;5864;52.998;9.068;2023-09-19T14:27:47;20.70;99.90
11617;DHT22;5864;52.998;9.068;2023-09-19T14:30:33;20.70;99.90
11617;DHT22;5864;52.998;9.068;2023-09-19T14:33:19;20.80;99.90
11617;DHT22;5864;52.998;9.068;2023-09-19T14:36:05;21.00;99.90
11617;DHT22;5864;52.998;9.068;2023-09-19T14:38:53;21.00;99.90
11617;DHT22;5864;52.998;9.068;2023-09-19T14:41:40;21.00;99.90
11617;DHT22;5864;52.998;9.068;2023-09-19T14:44:26;21.00;99.90
11617;DHT22;5864;52.998;9.068;2023-09-19T14:47:12;20.90;99.90
11617;DHT22;5864;52.998;9.068;2023-09-19T14:49:58;20.90;99.90
11617;DHT22;5864;52.998;9.068;2023-09-19T14:52:43;20.80;99.90
11617;DHT22;5864;52.998;9.068;2023-09-19T14:55:30;20.80;99.90
11617;DHT22;5864;52.998;9.068;2023-09-19T14:58:20;20.50;99.90
11617;DHT22;5864;52.998;9.068;2023-09-19T15:01:08;20.30;99.90
11617;DHT22;5864;52.998;9.068;2023-09-19T15:03:54;20.40;99.90
11617;DHT22;5864;52.998;9.068;2023-09-19T15:06:40;20.40;99.90
11617;DHT22;5864;52.998;9.068;2023-09-19T15:09:26;20.40;99.90
11617;DHT22;5864;52.998;9.068;2023-09-19T15:12:11;20.40;99.90
11617;DHT22;5864;52.998;9.068;2023-09-19T15:14:59;20.30;99.90
11617;DHT22;5864;52.998;9.068;2023-09-19T15:17:45;20.20;99.90
11617;DHT22;5864;52.998;9.068;2023-09-19T15:20:31;20.00;99.90
11617;DHT22;5864;52.998;9.068;2023-09-19T15:23:16;19.90;99.90
11617;DHT22;5864;52.998;9.068;2023-09-19T15:26:03;19.80;99.90
11617;DHT22;5864;52.998;9.068;2023-09-19T15:28:49;19.80;99.90
11617;DHT22;5864;52.998;9.068;2023-09-19T15:31:36;19.70;99.90
11617;DHT22;5864;52.998;9.068;2023-09-19T15:34:22;19.80;99.90
11617;DHT22;5864;52.998;9.068;2023-09-19T15:37:09;19.80;99.90
11617;DHT22;5864;52.998;9.068;2023-09-19T15:39:54;19.90;99.90
11617;DHT22;5864;52.998;9.068;2023-09-19T15:42:41;19.80;99.90
11617;DHT22;5864;52.998;9.068;2023-09-19T15:45:27;19.70;99.90
11617;DHT22;5864;52.998;9.068;2023-09-19T15:48:14;19.60;99.90
11617;DHT22;5864;52.998;9.068;2023-09-19T15:51:03;19.60;99.90
11617;DHT22;5864;52.998;9.068;2023-09-19T15:53:50;19.60;99.90
11617;DHT22;5864;52.998;9.068;2023-09-19T15:56:35;19.60;99.90
11617;DHT22;5864;52.998;9.068;2023-09-19T15:59:21;19.50;99.90
11617;DHT22;5864;52.998;9.068;2023-09-19T16:02:06;19.60;99.90
11617;DHT22;5864;52.998;9.068;2023-09-19T16:04:55;19.40;99.90
11617;DHT22;5864;52.998;9.068;2023-09-19T16:07:41;19.50;99.90
11617;DHT22;5864;52.998;9.068;2023-09-19T16:10:28;19.30;99.90
11617;DHT22;5864;52.998;9.068;2023-09-19T16:13:13;19.30;99.90
11617;DHT22;5864;52.998;9.068;2023-09-19T16:16:00;19.30;99.90
11617;DHT22;5864;52.998;9.068;2023-09-19T16:18:45;19.20;99.90
11617;DHT22;5864;52.998;9.068;2023-09-19T16:21:34;19.20;99.90
11617;DHT22;5864;52.998;9.068;2023-09-19T16:24:20;19.20;99.90
11617;DHT22;5864;52.998;9.068;2023-09-19T16:27:06;19.20;99.90
11617;DHT22;5864;52.998;9.068;2023-09-19T16:29:51;19.20;99.90
11617;DHT22;5864;52.998;9.068;2023-09-19T16:32:38;19.10;99.90
11617;DHT22;5864;52.998;9.068;2023-09-19T16:35:23;19.20;99.90
11617;DHT22;5864;52.998;9.068;2023-09-19T16:38:10;19.20;99.90
11617;DHT22;5864;52.998;9.068;2023-09-19T16:40:57;19.20;99.90
11617;DHT22;5864;52.998;9.068;2023-09-19T16:43:43;19.20;99.90
11617;DHT22;5864;52.998;9.068;2023-09-19T16:46:28;19.10;99.90
11617;DHT22;5864;52.998;9.068;2023-09-19T16:49:14;19.10;99.90
11617;DHT22;5864;52.998;9.068;2023-09-19T16:52:00;19.00;99.90
11617;DHT22;5864;52.998;9.068;2023-09-19T16:54:48;19.10;99.90
11617;DHT22;5864;52.998;9.068;2023-09-19T16:57:33;19.10;99.90
11617;DHT22;5864;52.998;9.068;2023-09-19T17:00:19;19.20;99.90
11617;DHT22;5864;52.998;9.068;2023-09-19T17:03:04;19.10;99.90
11617;DHT22;5864;52.998;9.068;2023-09-19T17:05:50;19.10;99.90
11617;DHT22;5864;52.998;9.068;2023-09-19T17:08:36;19.10;99.90
11617;DHT22;5864;52.998;9.068;2023-09-19T17:11:23;19.10;99.90
11617;DHT22;5864;52.998;9.068;2023-09-19T17:14:09;19.00;99.90
11617;DHT22;5864;52.998;9.068;2023-09-19T17:16:55;19.00;99.90
11617;DHT22;5864;52.998;9.068;2023-09-19T17:19:40;19.00;99.90
11617;DHT22;5864;52.998;9.068;2023-09-19T17:22:26;18.90;99.90
11617;DHT22;5864;52.998;9.068;2023-09-19T17:25:12;18.90;99.90
11617;DHT22;5864;52.998;9.068;2023-09-19T17:27:59;18.90;99.90
11617;DHT22;5864;52.998;9.068;2023-09-19T17:30:45;18.90;99.90
11617;DHT22;5864;52.998;9.068;2023-09-19T17:33:31;18.80;99.90
11617;DHT22;5864;52.998;9.068;2023-09-19T17:36:20;18.90;99.90
11617;DHT22;5864;52.998;9.068;2023-09-19T17:39:05;18.90;99.90
11617;DHT22;5864;52.998;9.068;2023-09-19T17:41:53;18.80;99.90
11617;DHT22;5864;52.998;9.068;2023-09-19T17:44:40;18.80;99.90
11617;DHT22;5864;52.998;9.068;2023-09-19T17:47:26;18.80;99.90
11617;DHT22;5864;52.998;9.068;2023-09-19T17:50:12;18.80;99.90
11617;DHT22;5864;52.998;9.068;2023-09-19T17:52:57;18.70;99.90
11617;DHT22;5864;52.998;9.068;2023-09-19T17:55:45;18.90;99.90
11617;DHT22;5864;52.998;9.068;2023-09-19T17:58:31;18.80;99.90
11617;DHT22;5864;52.998;9.068;2023-09-19T18:01:18;18.80;99.90